Time;durP1;ratioP1;P1;durP2;ratioP2;P2;SDS_P1;SDS_P2;PMS_P1;PMS_P2;Temp;Humidity;BMP_temperature;BMP_pressure;BME280_temperature;BME280_humidity;BME280_pressure;Samples;Min_cycle;Max_cycle;Signal;HPM_P1;HPM_P2
2022/09/25 00:01:20;;;;;;;;;;;18.40;70.70;;;;;;4526960;31;20029;-62
2022/09/25 00:03:46;;;;;;;;;;;18.40;70.70;;;;;;4514573;31;20090;-62
2022/09/25 00:06:13;;;;;;;;;;;18.40;70.70;;;;;;4513699;31;20151;-61
2022/09/25 00:08:39;;;;;;;;;;;18.40;70.70;;;;;;4515234;31;20032;-61
2022/09/25 00:11:25;;;;;;;;;;;18.40;70.70;;;;;;4514298;31;20033;-62
2022/09/25 00:13:51;;;;;;;;;;;18.40;70.70;;;;;;4515338;31;20438;-62
2022/09/25 00:16:18;;;;;;;;;;;18.40;70.70;;;;;;4513389;31;20029;-62
2022/09/25 00:21:30;;;;;;;;;;;18.40;70.70;;;;;;4514914;31;20142;-62
2022/09/25 00:24:02;;;;;;;;;;;18.40;70.60;;;;;;4514140;31;20041;-62
2022/09/25 00:26:29;;;;;;;;;;;18.40;70.70;;;;;;4515183;31;20037;-62
2022/09/25 00:28:55;;;;;;;;;;;18.40;70.60;;;;;;4514382;31;20033;-61
2022/09/25 00:31:23;;;;;;;;;;;18.40;70.60;;;;;;4514479;31;20056;-62
2022/09/25 00:33:52;;;;;;;;;;;18.40;70.60;;;;;;4503173;31;20025;-61
2022/09/25 00:36:18;;;;;;;;;;;18.40;70.70;;;;;;4501025;31;20051;-62
2022/09/25 00:38:47;;;;;;;;;;;18.40;70.60;;;;;;4503729;31;20060;-62
2022/09/25 00:41:13;;;;;;;;;;;18.40;70.60;;;;;;4513923;31;20143;-62
2022/09/25 00:43:40;;;;;;;;;;;18.40;70.60;;;;;;4504850;31;20025;-61
2022/09/25 00:46:09;;;;;;;;;;;18.40;70.60;;;;;;4512137;31;20021;-61
2022/09/25 00:48:35;;;;;;;;;;;18.40;70.50;;;;;;4514374;31;20087;-62
2022/09/25 00:51:01;;;;;;;;;;;18.30;70.50;;;;;;4514139;31;20020;-61
2022/09/25 00:53:32;;;;;;;;;;;18.30;70.60;;;;;;4512966;31;20472;-62
2022/09/25 00:56:00;;;;;;;;;;;18.30;70.40;;;;;;4514853;31;20017;-62
2022/09/25 00:58:27;;;;;;;;;;;18.30;70.50;;;;;;4513611;31;20025;-62
2022/09/25 01:00:52;;;;;;;;;;;18.30;70.50;;;;;;4514741;31;20039;-61
2022/09/25 01:03:19;;;;;;;;;;;18.30;70.40;;;;;;4513700;31;20021;-62
2022/09/25 01:05:45;;;;;;;;;;;18.30;70.40;;;;;;4513998;31;20086;-62
2022/09/25 01:08:12;;;;;;;;;;;18.30;70.50;;;;;;4512838;31;20028;-62
2022/09/25 01:10:38;;;;;;;;;;;18.30;70.40;;;;;;4513800;31;20024;-62
2022/09/25 01:13:05;;;;;;;;;;;18.30;70.40;;;;;;4514433;31;20072;-61
2022/09/25 01:15:37;;;;;;;;;;;18.30;70.40;;;;;;4512789;31;20133;-62
2022/09/25 01:18:16;;;;;;;;;;;18.30;70.40;;;;;;4514475;31;20028;-61
2022/09/25 01:20:50;;;;;;;;;;;18.30;70.40;;;;;;4498022;31;20569;-62
2022/09/25 01:23:39;;;;;;;;;;;18.30;70.40;;;;;;4509587;31;20033;-61
2022/09/25 01:26:08;;;;;;;;;;;18.30;70.40;;;;;;4491623;31;20039;-62
2022/09/25 01:28:52;;;;;;;;;;;18.30;70.40;;;;;;4513131;31;20052;-62
2022/09/25 01:31:23;;;;;;;;;;;18.30;70.40;;;;;;4513700;31;20044;-62
2022/09/25 01:33:53;;;;;;;;;;;18.30;70.30;;;;;;4513630;31;20024;-62
2022/09/25 01:36:31;;;;;;;;;;;18.30;70.30;;;;;;4513457;31;20032;-62
2022/09/25 01:39:01;;;;;;;;;;;18.30;70.30;;;;;;4513943;31;20564;-62
2022/09/25 01:41:32;;;;;;;;;;;18.30;70.30;;;;;;4513227;31;20021;-62
2022/09/25 01:44:02;;;;;;;;;;;18.30;70.30;;;;;;4513897;31;20196;-62
2022/09/25 01:46:30;;;;;;;;;;;18.30;70.30;;;;;;4513365;31;20036;-62
2022/09/25 01:48:59;;;;;;;;;;;18.30;70.30;;;;;;4513131;31;20025;-62
2022/09/25 01:51:29;;;;;;;;;;;18.30;70.30;;;;;;4513836;31;20036;-62
2022/09/25 01:53:57;;;;;;;;;;;18.30;70.30;;;;;;4512714;31;20090;-61
2022/09/25 01:56:32;;;;;;;;;;;18.20;70.20;;;;;;4498096;31;20114;-61
2022/09/25 01:59:19;;;;;;;;;;;18.20;70.20;;;;;;4508022;31;20163;-62
2022/09/25 02:01:45;;;;;;;;;;;18.30;70.30;;;;;;4488416;31;20040;-61
2022/09/25 02:04:17;;;;;;;;;;;18.20;70.20;;;;;;4513567;31;20133;-62
2022/09/25 02:06:45;;;;;;;;;;;18.20;70.20;;;;;;4512756;31;20186;-61
2022/09/25 02:09:32;;;;;;;;;;;18.20;70.20;;;;;;4513916;31;20135;-61
2022/09/25 02:12:00;;;;;;;;;;;18.20;70.20;;;;;;4497248;31;20486;-62
2022/09/25 02:14:30;;;;;;;;;;;18.20;70.20;;;;;;4508883;31;20045;-61
2022/09/25 02:16:57;;;;;;;;;;;18.20;70.20;;;;;;4513291;31;20043;-61
2022/09/25 02:22:13;;;;;;;;;;;18.20;70.20;;;;;;4513777;31;20087;-62
2022/09/25 02:24:56;;;;;;;;;;;18.20;70.20;;;;;;4512764;31;20105;-62
2022/09/25 02:27:23;;;;;;;;;;;18.20;70.20;;;;;;4512814;31;20032;-62
2022/09/25 02:29:49;;;;;;;;;;;18.20;70.20;;;;;;4513131;31;20021;-62
2022/09/25 02:32:17;;;;;;;;;;;18.20;70.10;;;;;;4512352;31;20512;-61
2022/09/25 02:34:42;;;;;;;;;;;18.20;70.10;;;;;;4513525;31;20044;-61
2022/09/25 02:37:15;;;;;;;;;;;18.20;70.10;;;;;;4512321;31;20086;-61
2022/09/25 02:39:42;;;;;;;;;;;18.20;70.20;;;;;;4513213;31;20032;-61
2022/09/25 02:42:13;;;;;;;;;;;18.20;70.10;;;;;;4512588;31;20036;-62
2022/09/25 02:44:42;;;;;;;;;;;18.20;70.10;;;;;;4512872;31;20025;-62
2022/09/25 02:47:11;;;;;;;;;;;18.20;70.10;;;;;;4513087;31;20151;-62
2022/09/25 02:49:45;;;;;;;;;;;18.20;70.00;;;;;;4512316;31;20037;-61
2022/09/25 02:52:13;;;;;;;;;;;18.20;70.10;;;;;;4513350;31;20036;-61
2022/09/25 02:54:46;;;;;;;;;;;18.20;70.10;;;;;;4496573;31;20017;-61
2022/09/25 02:57:18;;;;;;;;;;;18.10;70.00;;;;;;4507280;31;20567;-62
2022/09/25 02:59:46;;;;;;;;;;;18.20;70.10;;;;;;4512986;31;20060;-62
2022/09/25 03:02:12;;;;;;;;;;;18.10;70.00;;;;;;4512127;31;20029;-61
2022/09/25 03:04:38;;;;;;;;;;;18.20;70.10;;;;;;4513239;31;20478;-61
2022/09/25 03:07:05;;;;;;;;;;;18.20;70.00;;;;;;4512317;31;20044;-61
2022/09/25 03:09:33;;;;;;;;;;;18.10;70.80;;;;;;4512824;31;20027;-62
2022/09/25 03:12:00;;;;;;;;;;;18.10;70.00;;;;;;4512545;31;20036;-62
2022/09/25 03:14:26;;;;;;;;;;;18.10;70.00;;;;;;4512457;31;20484;-62
2022/09/25 03:16:56;;;;;;;;;;;18.10;70.00;;;;;;4511682;31;20025;-62
2022/09/25 03:19:23;;;;;;;;;;;18.10;70.00;;;;;;4501554;31;20050;-62
2022/09/25 03:21:49;;;;;;;;;;;18.10;70.00;;;;;;4512965;31;20114;-62
2022/09/25 03:24:15;;;;;;;;;;;18.10;70.00;;;;;;4512009;31;20025;-61
2022/09/25 03:26:42;;;;;;;;;;;18.10;70.00;;;;;;4512767;31;20032;-61
2022/09/25 03:29:08;;;;;;;;;;;18.10;70.00;;;;;;4512436;31;20025;-62
2022/09/25 03:31:34;;;;;;;;;;;18.10;70.00;;;;;;4512037;31;20125;-62
2022/09/25 03:33:59;;;;;;;;;;;18.10;70.00;;;;;;4512691;31;20547;-62
2022/09/25 03:36:26;;;;;;;;;;;18.10;70.00;;;;;;4512055;31;20032;-62
2022/09/25 03:38:56;;;;;;;;;;;18.10;70.00;;;;;;4513983;31;20025;-61
2022/09/25 03:41:22;;;;;;;;;;;18.10;69.90;;;;;;4514829;31;20090;-61
2022/09/25 03:43:50;;;;;;;;;;;18.10;69.90;;;;;;4515422;31;20040;-61
2022/09/25 03:46:21;;;;;;;;;;;18.10;69.90;;;;;;4515247;31;20028;-62
2022/09/25 03:48:46;;;;;;;;;;;18.10;70.00;;;;;;4514587;31;20044;-62
2022/09/25 03:51:12;;;;;;;;;;;18.10;69.90;;;;;;4514834;31;20005;-62
2022/09/25 03:53:38;;;;;;;;;;;18.10;69.90;;;;;;4514089;31;20028;-63
2022/09/25 03:56:06;;;;;;;;;;;18.10;69.90;;;;;;4515253;31;20044;-63
2022/09/25 03:58:32;;;;;;;;;;;18.10;69.90;;;;;;4514128;31;20469;-62
2022/09/25 04:00:57;;;;;;;;;;;18.10;69.90;;;;;;4514858;31;20031;-63
2022/09/25 04:03:26;;;;;;;;;;;18.10;69.80;;;;;;4512936;31;20016;-63
2022/09/25 04:05:52;;;;;;;;;;;18.10;69.90;;;;;;4514381;31;20028;-62
2022/09/25 04:08:18;;;;;;;;;;;18.00;69.80;;;;;;4514649;31;20032;-63
2022/09/25 04:10:46;;;;;;;;;;;18.00;69.80;;;;;;4513946;31;20036;-63
2022/09/25 04:13:12;;;;;;;;;;;18.10;69.80;;;;;;4515050;31;20547;-63
2022/09/25 04:15:39;;;;;;;;;;;18.00;69.80;;;;;;4513889;31;20017;-62
2022/09/25 04:18:05;;;;;;;;;;;18.10;69.80;;;;;;4514462;31;20055;-63
2022/09/25 04:20:30;;;;;;;;;;;18.10;69.80;;;;;;4514166;31;20033;-62
2022/09/25 04:22:56;;;;;;;;;;;18.10;69.80;;;;;;4511574;31;20126;-62
2022/09/25 04:25:24;;;;;;;;;;;18.10;69.80;;;;;;4514368;31;20040;-63
2022/09/25 04:27:54;;;;;;;;;;;18.00;69.70;;;;;;4512025;31;20139;-63
2022/09/25 04:30:21;;;;;;;;;;;18.10;69.70;;;;;;4512665;31;20457;-62
2022/09/25 04:35:31;;;;;;;;;;;18.00;69.70;;;;;;4512581;31;20032;-62
2022/09/25 04:37:57;;;;;;;;;;;18.00;69.70;;;;;;4513984;31;20028;-63
2022/09/25 04:40:22;;;;;;;;;;;18.00;69.70;;;;;;4513455;31;20028;-63
2022/09/25 04:42:53;;;;;;;;;;;18.00;69.70;;;;;;4513122;31;20143;-63
2022/09/25 04:45:19;;;;;;;;;;;18.00;69.70;;;;;;4513758;31;20072;-62
2022/09/25 04:47:44;;;;;;;;;;;18.00;69.70;;;;;;4514924;31;20178;-62
2022/09/25 04:50:10;;;;;;;;;;;18.00;69.70;;;;;;4512949;31;20013;-62
2022/09/25 04:52:36;;;;;;;;;;;18.00;69.70;;;;;;4513887;31;20119;-62
2022/09/25 04:55:02;;;;;;;;;;;18.00;69.70;;;;;;4512539;31;20042;-63
2022/09/25 04:57:28;;;;;;;;;;;18.00;69.70;;;;;;4513581;31;20540;-63
2022/09/25 04:59:53;;;;;;;;;;;18.00;69.70;;;;;;4513188;31;20029;-62
2022/09/25 05:02:19;;;;;;;;;;;18.00;69.70;;;;;;4510907;31;20098;-63
2022/09/25 05:04:45;;;;;;;;;;;18.00;69.70;;;;;;4512418;31;20045;-63
2022/09/25 05:07:10;;;;;;;;;;;18.00;69.70;;;;;;4512166;31;20044;-62
2022/09/25 05:09:36;;;;;;;;;;;18.00;69.70;;;;;;4513241;31;20036;-63
2022/09/25 05:12:02;;;;;;;;;;;18.00;69.70;;;;;;4513670;31;20020;-62
2022/09/25 05:14:29;;;;;;;;;;;18.00;69.70;;;;;;4509820;31;20036;-62
2022/09/25 05:16:55;;;;;;;;;;;18.00;69.70;;;;;;4510774;31;20035;-62
2022/09/25 05:19:21;;;;;;;;;;;18.00;69.70;;;;;;4513290;31;20111;-62
2022/09/25 05:21:47;;;;;;;;;;;18.00;69.70;;;;;;4514359;31;20029;-62
2022/09/25 05:24:13;;;;;;;;;;;18.00;69.70;;;;;;4513164;31;20032;-62
2022/09/25 05:26:39;;;;;;;;;;;18.00;69.70;;;;;;4510660;31;20127;-62
2022/09/25 05:29:06;;;;;;;;;;;18.00;69.70;;;;;;4513542;31;20043;-62
2022/09/25 05:31:32;;;;;;;;;;;18.00;69.70;;;;;;4513189;31;20024;-62
2022/09/25 05:33:58;;;;;;;;;;;18.00;69.70;;;;;;4513724;31;20531;-62
2022/09/25 05:36:23;;;;;;;;;;;18.00;69.60;;;;;;4513284;31;20029;-61
2022/09/25 05:38:49;;;;;;;;;;;18.00;69.70;;;;;;4513978;31;20448;-61
2022/09/25 05:41:15;;;;;;;;;;;17.90;69.60;;;;;;4513256;31;20029;-61
2022/09/25 05:43:42;;;;;;;;;;;18.00;69.60;;;;;;4513918;31;20395;-62
2022/09/25 05:46:08;;;;;;;;;;;18.00;69.60;;;;;;4513298;31;20155;-62
2022/09/25 05:48:34;;;;;;;;;;;17.90;69.60;;;;;;4513654;31;20051;-62
2022/09/25 05:51:00;;;;;;;;;;;18.00;69.60;;;;;;4513467;31;20509;-62
2022/09/25 05:53:26;;;;;;;;;;;17.90;69.60;;;;;;4512084;31;20078;-62
2022/09/25 05:55:53;;;;;;;;;;;17.90;69.50;;;;;;4502580;31;20017;-62
2022/09/25 05:58:20;;;;;;;;;;;17.90;69.50;;;;;;4512804;31;20183;-62
2022/09/25 06:00:49;;;;;;;;;;;17.90;69.50;;;;;;4501430;31;20037;-62
2022/09/25 06:03:15;;;;;;;;;;;17.90;69.50;;;;;;4512824;31;20424;-62
2022/09/25 06:05:40;;;;;;;;;;;17.90;69.50;;;;;;4513301;31;20033;-62
2022/09/25 06:08:06;;;;;;;;;;;17.90;69.50;;;;;;4513257;31;20488;-62
2022/09/25 06:10:32;;;;;;;;;;;17.90;69.50;;;;;;4512949;31;20013;-62
2022/09/25 06:12:58;;;;;;;;;;;17.90;69.50;;;;;;4513672;31;20049;-62
2022/09/25 06:15:26;;;;;;;;;;;17.90;69.50;;;;;;4512829;31;20016;-62
2022/09/25 06:17:52;;;;;;;;;;;17.90;69.50;;;;;;4513548;31;20151;-61
2022/09/25 06:20:18;;;;;;;;;;;17.90;69.50;;;;;;4512942;31;20029;-62
2022/09/25 06:22:50;;;;;;;;;;;17.90;69.50;;;;;;4513230;31;20566;-61
2022/09/25 06:25:16;;;;;;;;;;;17.90;69.50;;;;;;4511988;31;20041;-62
2022/09/25 06:27:41;;;;;;;;;;;17.90;69.50;;;;;;4503155;31;20066;-62
2022/09/25 06:30:08;;;;;;;;;;;17.90;69.50;;;;;;4511976;31;20140;-62
2022/09/25 06:32:34;;;;;;;;;;;17.90;69.60;;;;;;4512289;31;20050;-62
2022/09/25 06:34:59;;;;;;;;;;;17.90;69.50;;;;;;4513238;31;20020;-62
2022/09/25 06:37:25;;;;;;;;;;;17.90;69.50;;;;;;4512622;31;20452;-62
2022/09/25 06:39:51;;;;;;;;;;;17.90;69.50;;;;;;4512859;31;20013;-62
2022/09/25 06:42:16;;;;;;;;;;;17.90;69.60;;;;;;4509464;31;20032;-62
2022/09/25 06:44:42;;;;;;;;;;;17.90;69.60;;;;;;4512631;31;20354;-62
2022/09/25 06:47:11;;;;;;;;;;;17.90;69.50;;;;;;4513392;31;20092;-62
2022/09/25 06:49:37;;;;;;;;;;;17.90;69.50;;;;;;4512473;31;20039;-62
2022/09/25 06:52:03;;;;;;;;;;;17.90;69.60;;;;;;4513412;31;20028;-61
2022/09/25 06:54:29;;;;;;;;;;;17.90;69.50;;;;;;4512332;31;20533;-62
2022/09/25 06:56:55;;;;;;;;;;;17.90;69.50;;;;;;4512789;31;20044;-62
2022/09/25 06:59:21;;;;;;;;;;;17.90;69.60;;;;;;4509459;31;20098;-62
2022/09/25 07:01:47;;;;;;;;;;;17.90;69.50;;;;;;4503407;31;20047;-62
2022/09/25 07:04:12;;;;;;;;;;;17.90;69.50;;;;;;4513129;31;20036;-62
2022/09/25 07:06:38;;;;;;;;;;;17.90;69.50;;;;;;4512165;31;20032;-64
2022/09/25 07:09:04;;;;;;;;;;;17.90;69.50;;;;;;4513496;31;20060;-62
2022/09/25 07:11:32;;;;;;;;;;;17.90;69.40;;;;;;4512065;31;20036;-62
2022/09/25 07:13:58;;;;;;;;;;;18.00;69.10;;;;;;4513951;31;20087;-62
2022/09/25 07:16:28;;;;;;;;;;;18.00;69.10;;;;;;4515580;31;20029;-62
2022/09/25 07:18:56;;;;;;;;;;;18.00;68.90;;;;;;4515414;31;20044;-62
2022/09/25 07:21:23;;;;;;;;;;;18.00;68.70;;;;;;4516017;31;20047;-62
2022/09/25 07:23:49;;;;;;;;;;;18.00;68.70;;;;;;4515294;31;20106;-61
2022/09/25 07:26:21;;;;;;;;;;;18.00;68.70;;;;;;4516111;31;20020;-62
2022/09/25 07:28:48;;;;;;;;;;;18.10;68.70;;;;;;4515485;31;20036;-61
2022/09/25 07:31:18;;;;;;;;;;;18.10;68.80;;;;;;4515601;31;20090;-62
2022/09/25 07:33:44;;;;;;;;;;;18.10;68.80;;;;;;4515272;31;20051;-62
2022/09/25 07:36:11;;;;;;;;;;;18.10;68.70;;;;;;4514796;31;20033;-62
2022/09/25 07:38:37;;;;;;;;;;;18.10;68.60;;;;;;4515306;31;20067;-62
2022/09/25 07:41:04;;;;;;;;;;;18.10;68.60;;;;;;4514113;31;20394;-62
2022/09/25 07:43:30;;;;;;;;;;;18.10;68.60;;;;;;4515446;31;20035;-62
2022/09/25 07:45:59;;;;;;;;;;;18.20;68.60;;;;;;4514566;31;20032;-62
2022/09/25 07:48:25;;;;;;;;;;;18.20;68.60;;;;;;4514666;31;20021;-62
2022/09/25 07:50:52;;;;;;;;;;;18.20;68.70;;;;;;4512377;31;20043;-62
2022/09/25 07:53:18;;;;;;;;;;;18.30;68.80;;;;;;4515092;31;20029;-61
2022/09/25 07:55:44;;;;;;;;;;;18.30;68.90;;;;;;4515390;31;20082;-61
2022/09/25 07:58:10;;;;;;;;;;;18.30;68.90;;;;;;4514648;31;20509;-62
2022/09/25 08:00:36;;;;;;;;;;;18.30;68.90;;;;;;4514893;31;20393;-62
2022/09/25 08:03:02;;;;;;;;;;;18.30;68.90;;;;;;4511932;31;20044;-62
2022/09/25 08:05:28;;;;;;;;;;;18.30;68.90;;;;;;4515077;31;20082;-62
2022/09/25 08:07:54;;;;;;;;;;;18.30;69.00;;;;;;4514777;31;20158;-62
2022/09/25 08:10:20;;;;;;;;;;;18.30;69.10;;;;;;4514745;31;20020;-62
2022/09/25 08:12:46;;;;;;;;;;;18.30;69.10;;;;;;4503263;31;20092;-61
2022/09/25 08:15:13;;;;;;;;;;;18.30;69.10;;;;;;4514526;31;20473;-63
2022/09/25 08:17:39;;;;;;;;;;;18.30;69.10;;;;;;4527637;31;20024;-61
2022/09/25 08:20:06;;;;;;;;;;;18.40;69.20;;;;;;4514412;31;20061;-61
2022/09/25 08:22:32;;;;;;;;;;;18.40;69.20;;;;;;4514897;31;20051;-62
2022/09/25 08:25:01;;;;;;;;;;;18.40;69.10;;;;;;4514472;31;20025;-61
2022/09/25 08:27:28;;;;;;;;;;;18.40;69.10;;;;;;4510878;31;20528;-61
2022/09/25 08:29:53;;;;;;;;;;;18.50;69.00;;;;;;4514022;31;20058;-61
2022/09/25 08:32:20;;;;;;;;;;;18.50;69.00;;;;;;4525688;31;20040;-62
2022/09/25 08:34:46;;;;;;;;;;;18.60;68.90;;;;;;4514819;31;20029;-61
2022/09/25 08:37:12;;;;;;;;;;;18.60;68.90;;;;;;4513799;31;20039;-61
2022/09/25 08:39:38;;;;;;;;;;;18.60;68.60;;;;;;4514088;31;20025;-61
2022/09/25 08:42:04;;;;;;;;;;;18.60;68.60;;;;;;4512782;31;20476;-61
2022/09/25 08:44:35;;;;;;;;;;;18.70;68.60;;;;;;4513924;31;20021;-61
2022/09/25 08:50:12;;;;;;;;;;;18.70;68.40;;;;;;4513481;31;20075;-61
2022/09/25 08:52:40;;;;;;;;;;;18.70;68.40;;;;;;4513840;31;20076;-61
2022/09/25 08:55:15;;;;;;;;;;;18.70;68.30;;;;;;4513833;31;20038;-62
2022/09/25 08:57:42;;;;;;;;;;;18.70;68.30;;;;;;4511408;31;20037;-62
2022/09/25 09:00:11;;;;;;;;;;;18.70;68.30;;;;;;4514556;31;20028;-62
2022/09/25 09:02:42;;;;;;;;;;;18.70;68.40;;;;;;4513400;31;20150;-62
2022/09/25 09:05:14;;;;;;;;;;;18.70;68.40;;;;;;4505118;31;20025;-63
2022/09/25 09:07:42;;;;;;;;;;;18.60;68.30;;;;;;4514023;31;20025;-63
2022/09/25 09:10:14;;;;;;;;;;;18.60;68.40;;;;;;4513512;31;20032;-63
2022/09/25 09:12:42;;;;;;;;;;;18.60;68.50;;;;;;4512702;31;20020;-63
2022/09/25 09:15:23;;;;;;;;;;;18.60;68.60;;;;;;4512288;31;20047;-63
2022/09/25 09:17:49;;;;;;;;;;;18.50;68.60;;;;;;4514328;31;20397;-63
2022/09/25 09:20:16;;;;;;;;;;;18.50;68.70;;;;;;4513625;31;20036;-63
2022/09/25 09:22:46;;;;;;;;;;;18.50;68.80;;;;;;4513793;31;20039;-63
2022/09/25 09:25:23;;;;;;;;;;;18.50;68.80;;;;;;4513429;31;20141;-63
2022/09/25 09:27:56;;;;;;;;;;;18.50;68.80;;;;;;4513353;31;20174;-62
2022/09/25 09:30:22;;;;;;;;;;;18.50;68.90;;;;;;4514458;31;20029;-62
2022/09/25 09:32:58;;;;;;;;;;;18.50;69.00;;;;;;4513082;31;20040;-62
2022/09/25 09:35:23;;;;;;;;;;;18.40;69.10;;;;;;4513230;31;20190;-63
2022/09/25 09:38:09;;;;;;;;;;;18.50;69.30;;;;;;4513154;31;20025;-63
2022/09/25 09:40:53;;;;;;;;;;;18.50;69.40;;;;;;4513132;31;20032;-63
2022/09/25 09:43:22;;;;;;;;;;;18.50;69.40;;;;;;4513653;31;20080;-62
2022/09/25 09:45:53;;;;;;;;;;;18.50;69.50;;;;;;4512712;31;20481;-63
2022/09/25 09:48:27;;;;;;;;;;;18.50;69.50;;;;;;4512112;31;20035;-62
2022/09/25 09:50:57;;;;;;;;;;;18.50;69.60;;;;;;4510666;31;20167;-62
2022/09/25 09:53:39;;;;;;;;;;;18.50;69.60;;;;;;4512056;31;20063;-62
2022/09/25 09:56:27;;;;;;;;;;;18.50;69.70;;;;;;4513876;31;20538;-61
2022/09/25 09:58:55;;;;;;;;;;;18.50;69.20;;;;;;4513348;31;20375;-61
2022/09/25 10:01:22;;;;;;;;;;;18.50;69.00;;;;;;4513351;31;20041;-62
2022/09/25 10:03:52;;;;;;;;;;;18.60;69.00;;;;;;4513247;31;20075;-62
2022/09/25 10:06:21;;;;;;;;;;;18.60;68.90;;;;;;4512170;31;20044;-63
2022/09/25 10:08:46;;;;;;;;;;;18.50;68.90;;;;;;4512421;31;20390;-63
2022/09/25 10:11:19;;;;;;;;;;;18.60;68.70;;;;;;4511537;31;20858;-63
2022/09/25 10:13:45;;;;;;;;;;;18.50;68.60;;;;;;4506278;31;20080;-64
2022/09/25 10:16:13;;;;;;;;;;;18.60;68.60;;;;;;4509386;31;20032;-63
2022/09/25 10:18:48;;;;;;;;;;;18.60;68.60;;;;;;4512508;31;20408;-64
2022/09/25 10:21:17;;;;;;;;;;;18.60;68.60;;;;;;4512048;31;20603;-62
2022/09/25 10:23:45;;;;;;;;;;;18.60;68.70;;;;;;4512567;31;20108;-63
2022/09/25 10:26:28;;;;;;;;;;;18.60;68.70;;;;;;4513533;31;20024;-62
2022/09/25 10:28:56;;;;;;;;;;;18.60;68.70;;;;;;4512891;31;20110;-63
2022/09/25 10:31:22;;;;;;;;;;;18.60;68.80;;;;;;4512649;31;20013;-63
2022/09/25 10:34:05;;;;;;;;;;;18.60;68.70;;;;;;4512835;31;20043;-62
2022/09/25 10:36:33;;;;;;;;;;;18.60;68.70;;;;;;4512171;31;20036;-62
2022/09/25 10:38:59;;;;;;;;;;;18.60;68.70;;;;;;4513429;31;20035;-62
2022/09/25 10:41:25;;;;;;;;;;;18.60;68.70;;;;;;4512478;31;20495;-63
2022/09/25 10:43:52;;;;;;;;;;;18.60;68.70;;;;;;4512859;31;20032;-63
2022/09/25 10:50:09;;;;;;;;;;;18.60;68.60;;;;;;4512803;31;20037;-62
2022/09/25 10:52:06;;;;;;;;;;;18.60;68.70;;;;;;4516777;31;20036;-64
2022/09/25 10:54:33;;;;;;;;;;;18.60;68.70;;;;;;4515659;31;20036;-62
2022/09/25 10:56:59;;;;;;;;;;;18.60;68.80;;;;;;4514976;31;20051;-63
2022/09/25 10:59:26;;;;;;;;;;;18.60;68.80;;;;;;4516000;31;20024;-62
2022/09/25 11:01:53;;;;;;;;;;;18.60;69.70;;;;;;4515535;31;20131;-62
2022/09/25 11:04:21;;;;;;;;;;;18.60;68.90;;;;;;4516461;31;20487;-64
2022/09/25 11:06:51;;;;;;;;;;;18.60;69.00;;;;;;4515613;31;20053;-63
2022/09/25 11:09:18;;;;;;;;;;;18.60;69.10;;;;;;4516108;31;20155;-63
2022/09/25 11:11:46;;;;;;;;;;;18.50;69.00;;;;;;4515867;31;20178;-63
2022/09/25 11:14:18;;;;;;;;;;;18.60;69.10;;;;;;4514687;31;20032;-63
2022/09/25 11:16:46;;;;;;;;;;;18.50;69.10;;;;;;4504615;31;20032;-63
2022/09/25 11:19:13;;;;;;;;;;;18.50;69.10;;;;;;4514173;31;20028;-63
2022/09/25 11:21:51;;;;;;;;;;;18.60;69.10;;;;;;4504811;31;20025;-63
2022/09/25 11:24:35;;;;;;;;;;;18.50;69.20;;;;;;4515447;31;20102;-63
2022/09/25 11:27:20;;;;;;;;;;;18.50;69.10;;;;;;4504761;31;20138;-63
2022/09/25 11:29:59;;;;;;;;;;;18.50;70.10;;;;;;4513976;31;20063;-62
2022/09/25 11:32:30;;;;;;;;;;;18.50;69.20;;;;;;4505914;31;20044;-62
2022/09/25 11:35:02;;;;;;;;;;;18.50;69.20;;;;;;4515934;31;20089;-63
2022/09/25 11:37:37;;;;;;;;;;;18.50;69.20;;;;;;4514964;31;20043;-63
2022/09/25 11:43:07;;;;;;;;;;;18.50;69.30;;;;;;4513920;31;20029;-61
2022/09/25 11:45:39;;;;;;;;;;;18.50;69.30;;;;;;4512400;31;20020;-61
2022/09/25 11:48:23;;;;;;;;;;;18.50;69.30;;;;;;4514820;31;20366;-60
2022/09/25 11:51:02;;;;;;;;;;;18.50;69.30;;;;;;4512819;31;20076;-60
2022/09/25 11:53:47;;;;;;;;;;;18.50;69.30;;;;;;4514969;31;20033;-62
2022/09/25 11:56:16;;;;;;;;;;;18.60;69.30;;;;;;4515625;31;20569;-62
2022/09/25 11:58:48;;;;;;;;;;;18.60;69.30;;;;;;4514191;31;20473;-62
2022/09/25 12:01:49;;;;;;;;;;;18.60;69.40;;;;;;4514468;31;20043;-62
2022/09/25 12:04:15;;;;;;;;;;;18.60;69.40;;;;;;4486264;31;20122;-61
2022/09/25 12:06:52;;;;;;;;;;;18.60;69.30;;;;;;4505233;31;20041;-61
2022/09/25 12:09:36;;;;;;;;;;;18.60;69.30;;;;;;4510972;31;20174;-62
2022/09/25 12:12:11;;;;;;;;;;;18.60;69.20;;;;;;4514861;31;20028;-62
2022/09/25 12:14:37;;;;;;;;;;;18.60;69.30;;;;;;4513140;31;20044;-62
2022/09/25 12:17:10;;;;;;;;;;;18.60;69.30;;;;;;4515003;31;20035;-61
2022/09/25 12:19:58;;;;;;;;;;;18.60;69.30;;;;;;4513758;31;20056;-61
2022/09/25 12:22:42;;;;;;;;;;;18.60;69.30;;;;;;4514663;31;20047;-61
2022/09/25 12:25:15;;;;;;;;;;;18.60;69.30;;;;;;4511525;31;20031;-61
2022/09/25 12:27:44;;;;;;;;;;;18.60;69.30;;;;;;4513741;31;20097;-61
2022/09/25 12:30:19;;;;;;;;;;;18.60;69.30;;;;;;4514790;31;20044;-62
2022/09/25 12:33:04;;;;;;;;;;;18.60;69.20;;;;;;4510806;31;20053;-61
2022/09/25 12:35:34;;;;;;;;;;;18.60;69.20;;;;;;4513125;31;20028;-62
2022/09/25 12:38:01;;;;;;;;;;;18.60;69.10;;;;;;4514263;31;20162;-63
2022/09/25 12:40:30;;;;;;;;;;;18.60;69.00;;;;;;4512593;31;20028;-63
2022/09/25 12:42:56;;;;;;;;;;;18.60;69.00;;;;;;4512176;31;20456;-63
2022/09/25 12:45:43;;;;;;;;;;;18.60;68.90;;;;;;4513470;31;20032;-63
2022/09/25 12:48:21;;;;;;;;;;;18.60;68.80;;;;;;4512745;31;20086;-64
2022/09/25 12:50:47;;;;;;;;;;;18.70;68.80;;;;;;4512295;31;20036;-63
2022/09/25 12:53:31;;;;;;;;;;;18.70;68.80;;;;;;4513663;31;20028;-63
2022/09/25 12:55:57;;;;;;;;;;;18.70;68.70;;;;;;4512049;31;21393;-63
2022/09/25 12:58:36;;;;;;;;;;;18.70;68.50;;;;;;4513430;31;20049;-63
2022/09/25 13:01:10;;;;;;;;;;;18.70;68.50;;;;;;4511317;31;20053;-63
2022/09/25 13:03:36;;;;;;;;;;;18.70;68.50;;;;;;4512213;31;20036;-63
2022/09/25 13:06:10;;;;;;;;;;;18.70;68.40;;;;;;4513185;31;20021;-65
2022/09/25 13:08:42;;;;;;;;;;;18.70;68.40;;;;;;4513033;31;20044;-64
2022/09/25 13:11:17;;;;;;;;;;;18.70;68.70;;;;;;4512223;31;20025;-64
2022/09/25 13:13:45;;;;;;;;;;;18.80;68.20;;;;;;4505571;31;20598;-64
2022/09/25 13:16:14;;;;;;;;;;;18.80;68.30;;;;;;4513803;31;20440;-60
2022/09/25 13:18:47;;;;;;;;;;;18.80;68.20;;;;;;4513068;31;20145;-60
2022/09/25 13:21:23;;;;;;;;;;;18.80;68.00;;;;;;4513656;31;20021;-60
2022/09/25 13:23:51;;;;;;;;;;;18.80;68.00;;;;;;4511299;31;20036;-60
2022/09/25 13:26:17;;;;;;;;;;;18.80;68.20;;;;;;4513905;31;20107;-61
2022/09/25 13:29:04;;;;;;;;;;;18.80;68.00;;;;;;4513238;31;20039;-60
2022/09/25 13:31:32;;;;;;;;;;;18.80;67.90;;;;;;4511531;31;20271;-61
2022/09/25 13:34:00;;;;;;;;;;;18.80;67.90;;;;;;4513762;31;20040;-61
2022/09/25 13:36:30;;;;;;;;;;;18.80;68.10;;;;;;4513114;31;20164;-61
2022/09/25 13:41:57;;;;;;;;;;;18.90;68.50;;;;;;4510068;31;20132;-61
2022/09/25 13:44:41;;;;;;;;;;;18.90;68.40;;;;;;4513310;31;20048;-60
2022/09/25 13:47:28;;;;;;;;;;;18.90;68.40;;;;;;4514053;31;20037;-61
2022/09/25 13:50:09;;;;;;;;;;;18.90;68.30;;;;;;4507605;31;20025;-61
2022/09/25 13:52:35;;;;;;;;;;;18.90;68.30;;;;;;4511011;31;20076;-61
2022/09/25 13:55:07;;;;;;;;;;;18.90;68.30;;;;;;4513314;31;20642;-61
2022/09/25 13:58:03;;;;;;;;;;;19.00;68.50;;;;;;4512750;31;20159;-62
2022/09/25 14:00:35;;;;;;;;;;;18.90;68.50;;;;;;4506860;31;20512;-60
2022/09/25 14:03:01;;;;;;;;;;;18.90;68.60;;;;;;4512820;31;20111;-60
2022/09/25 14:05:34;;;;;;;;;;;18.90;68.70;;;;;;4524986;31;20040;-61
2022/09/25 14:08:06;;;;;;;;;;;18.90;68.60;;;;;;4513494;31;20037;-61
2022/09/25 14:10:33;;;;;;;;;;;18.90;68.60;;;;;;4509490;31;20033;-60
2022/09/25 14:12:59;;;;;;;;;;;18.90;68.70;;;;;;4513615;31;20055;-60
2022/09/25 14:15:32;;;;;;;;;;;18.90;68.70;;;;;;4512776;31;20028;-61
2022/09/25 14:17:59;;;;;;;;;;;18.90;68.60;;;;;;4513287;31;20025;-61
2022/09/25 14:20:34;;;;;;;;;;;18.90;69.70;;;;;;4512936;31;20078;-61
2022/09/25 14:23:03;;;;;;;;;;;18.90;68.70;;;;;;4512472;31;20094;-60
2022/09/25 14:25:35;;;;;;;;;;;18.90;68.70;;;;;;4513481;31;20032;-61
2022/09/25 14:28:02;;;;;;;;;;;19.00;68.90;;;;;;4512339;31;20039;-61
2022/09/25 14:30:29;;;;;;;;;;;19.00;69.70;;;;;;4513406;31;20039;-61
2022/09/25 14:32:57;;;;;;;;;;;19.00;68.80;;;;;;4512402;31;20076;-61
2022/09/25 14:35:44;;;;;;;;;;;19.00;68.90;;;;;;4511682;31;20028;-61
2022/09/25 14:38:17;;;;;;;;;;;19.00;68.80;;;;;;4513159;31;20097;-61
2022/09/25 14:41:03;;;;;;;;;;;19.00;68.80;;;;;;4512174;31;20036;-60
2022/09/25 14:43:40;;;;;;;;;;;19.00;68.80;;;;;;4513438;31;20135;-60
2022/09/25 14:46:19;;;;;;;;;;;19.00;68.80;;;;;;4512825;31;20025;-61
2022/09/25 14:48:53;;;;;;;;;;;19.10;68.90;;;;;;4512881;31;20048;-61
2022/09/25 14:51:27;;;;;;;;;;;19.10;68.80;;;;;;4497621;31;20029;-61